createdAt,value
2019-01-29T00:01:57.120Z,88.58
2019-01-29T00:04:27.578Z,89.16
2019-01-29T00:06:58.015Z,89.45
2019-01-29T00:09:28.515Z,89.20
2019-01-29T00:11:59.320Z,89.56
2019-01-29T00:14:30.180Z,89.37
2019-01-29T00:17:00.708Z,89.38
2019-01-29T00:19:31.295Z,89.93
2019-01-29T00:22:01.781Z,89.70
2019-01-29T00:24:32.608Z,89.71
2019-01-29T00:27:03.043Z,89.96
2019-01-29T00:29:33.506Z,89.61
2019-01-29T00:32:03.932Z,89.37
2019-01-29T00:34:34.411Z,89.97
2019-01-29T00:37:04.851Z,89.74
2019-01-29T00:39:35.272Z,89.67
2019-01-29T00:42:05.743Z,89.82
2019-01-29T00:44:36.169Z,89.63
2019-01-29T00:47:06.652Z,89.41
2019-01-29T00:49:37.550Z,89.19
2019-01-29T00:52:07.985Z,89.17
2019-01-29T00:54:38.441Z,88.92
2019-01-29T00:57:08.885Z,89.04
2019-01-29T00:59:39.366Z,89.08
2019-01-29T01:02:10.459Z,89.18
2019-01-29T01:04:40.889Z,89.01
2019-01-29T01:07:11.357Z,89.45
2019-01-29T01:09:41.789Z,89.37
2019-01-29T01:12:12.294Z,89.81
2019-01-29T01:14:42.723Z,90.01
2019-01-29T01:17:13.156Z,90.25
2019-01-29T01:19:43.613Z,90.44
2019-01-29T01:22:14.045Z,90.78
2019-01-29T01:24:44.525Z,90.71
2019-01-29T01:27:14.956Z,91.06
2019-01-29T01:29:45.391Z,90.65
2019-01-29T01:32:16.212Z,90.71
2019-01-29T01:34:46.645Z,90.95
2019-01-29T01:37:17.118Z,91.33
2019-01-29T01:39:47.558Z,91.23
2019-01-29T01:42:17.991Z,91.02
2019-01-29T01:44:48.771Z,90.87
2019-01-29T01:47:19.209Z,91.15
2019-01-29T01:49:49.675Z,91.10
2019-01-29T01:52:20.104Z,91.12
2019-01-29T01:54:50.536Z,91.04
2019-01-29T01:57:21.153Z,91.14
2019-01-29T01:59:51.938Z,91.57
2019-01-29T02:02:22.820Z,91.17
2019-01-29T02:04:53.257Z,91.25
2019-01-29T02:07:23.697Z,91.44
2019-01-29T02:09:54.159Z,91.34
2019-01-29T02:12:25.600Z,91.28
2019-01-29T02:14:56.172Z,91.20
2019-01-29T02:17:27.047Z,91.42
2019-01-29T02:19:57.497Z,91.51
2019-01-29T02:22:27.959Z,91.70
2019-01-29T02:24:58.685Z,91.61
2019-01-29T02:27:29.165Z,91.62
2019-01-29T02:29:59.600Z,91.64
2019-01-29T02:32:30.035Z,92.01
2019-01-29T02:35:00.506Z,91.87
2019-01-29T02:37:31.328Z,91.98
2019-01-29T02:40:02.141Z,92.09
2019-01-29T02:42:32.576Z,92.08
2019-01-29T02:45:03.021Z,92.24
2019-01-29T02:47:33.482Z,91.98
2019-01-29T02:50:04.047Z,92.31
2019-01-29T02:52:34.897Z,92.68
2019-01-29T02:55:06.318Z,92.82
2019-01-29T02:57:36.757Z,92.99
2019-01-29T03:00:11.328Z,92.80
2019-01-29T03:02:42.170Z,92.92
2019-01-29T03:05:13.928Z,92.97
2019-01-29T03:07:44.803Z,92.79
2019-01-29T03:10:17.133Z,92.68
2019-01-29T03:12:47.792Z,92.51
2019-01-29T03:15:21.214Z,92.86
2019-01-29T03:17:51.790Z,92.86
2019-01-29T03:20:22.229Z,92.65
2019-01-29T03:22:53.424Z,92.43
2019-01-29T03:25:24.154Z,92.63
2019-01-29T03:27:54.766Z,92.48
2019-01-29T03:30:25.383Z,92.75
2019-01-29T03:32:55.810Z,92.56
2019-01-29T03:35:26.249Z,92.72
2019-01-29T03:37:56.715Z,92.72
2019-01-29T03:40:27.875Z,92.74
2019-01-29T03:42:58.455Z,92.83
2019-01-29T03:45:28.887Z,92.88
2019-01-29T03:47:59.365Z,92.87
2019-01-29T03:50:29.831Z,92.83
2019-01-29T03:53:00.669Z,92.61
2019-01-29T03:55:31.128Z,92.46
2019-01-29T03:58:01.830Z,92.36
2019-01-29T04:00:32.260Z,92.26
2019-01-29T04:03:02.995Z,92.01
2019-01-29T04:05:33.428Z,91.97
2019-01-29T04:08:03.910Z,91.88
2019-01-29T04:10:34.349Z,92.15
2019-01-29T04:13:05.092Z,92.09
2019-01-29T04:15:35.889Z,92.01
2019-01-29T04:18:06.324Z,91.55
2019-01-29T04:20:37.155Z,91.67
2019-01-29T04:23:07.595Z,91.50
2019-01-29T04:25:38.024Z,91.27
2019-01-29T04:28:08.558Z,91.63
2019-01-29T04:30:38.992Z,91.37
2019-01-29T04:33:09.818Z,91.51
2019-01-29T04:35:40.251Z,91.50
2019-01-29T04:38:11.084Z,91.51
2019-01-29T04:40:41.544Z,91.84
2019-01-29T04:43:13.167Z,91.82
2019-01-29T04:45:43.843Z,91.52
2019-01-29T04:48:14.338Z,91.58
2019-01-29T04:50:44.791Z,92.08
2019-01-29T04:53:15.247Z,92.03
2019-01-29T04:55:46.061Z,92.18
2019-01-29T04:58:17.289Z,91.97
2019-01-29T05:00:47.739Z,92.28
2019-01-29T05:03:18.556Z,92.26
2019-01-29T05:05:49.022Z,92.00
2019-01-29T05:08:19.469Z,91.99
2019-01-29T05:10:49.966Z,91.80
2019-01-29T05:13:20.393Z,92.03
2019-01-29T05:15:50.831Z,91.86
2019-01-29T05:18:21.568Z,91.89
2019-01-29T05:20:52.368Z,91.90
2019-01-29T05:23:22.900Z,91.82
2019-01-29T05:25:53.346Z,91.77
2019-01-29T05:28:23.931Z,91.58
2019-01-29T05:30:54.400Z,91.76
2019-01-29T05:33:25.144Z,91.63
2019-01-29T05:35:55.961Z,91.87
2019-01-29T05:38:26.408Z,91.68
2019-01-29T05:40:56.889Z,91.59
2019-01-29T05:43:27.352Z,91.71
2019-01-29T05:45:57.785Z,91.62
2019-01-29T05:48:28.265Z,91.25
2019-01-29T05:50:59.062Z,91.50
2019-01-29T05:53:29.491Z,91.50
2019-01-29T05:55:59.969Z,91.36
2019-01-29T05:58:31.080Z,91.20
2019-01-29T06:01:02.023Z,91.38
2019-01-29T06:03:32.862Z,91.51
2019-01-29T06:06:03.709Z,91.57
2019-01-29T06:08:34.167Z,91.34
2019-01-29T06:11:05.733Z,91.20
2019-01-29T06:13:36.244Z,91.07
2019-01-29T06:16:06.684Z,91.34
2019-01-29T06:18:37.285Z,91.39
2019-01-29T06:21:08.036Z,91.24
2019-01-29T06:23:38.466Z,91.61
2019-01-29T06:26:09.246Z,91.50
2019-01-29T06:28:39.689Z,91.53
2019-01-29T06:31:10.122Z,91.18
2019-01-29T06:33:40.586Z,91.06
2019-01-29T06:36:11.053Z,90.81
2019-01-29T06:38:41.803Z,90.78
2019-01-29T06:41:12.237Z,90.72
2019-01-29T06:43:43.135Z,90.44
2019-01-29T06:46:13.578Z,90.71
2019-01-29T06:48:44.059Z,90.59
2019-01-29T06:51:14.812Z,90.80
2019-01-29T06:53:45.652Z,90.87
2019-01-29T06:56:16.136Z,90.73
2019-01-29T06:58:46.648Z,90.95
2019-01-29T07:01:17.130Z,91.03
2019-01-29T07:03:47.887Z,91.04
2019-01-29T07:06:18.316Z,91.08
2019-01-29T07:08:48.780Z,90.73
2019-01-29T07:11:19.237Z,91.25
2019-01-29T07:13:49.714Z,90.97
2019-01-29T07:16:37.707Z,91.08
2019-01-29T07:19:18.198Z,91.00
2019-01-29T07:21:48.934Z,91.21
2019-01-29T07:24:19.673Z,91.33
2019-01-29T07:26:50.132Z,91.28
2019-01-29T07:29:20.563Z,91.33
2019-01-29T07:31:51.143Z,91.28
2019-01-29T07:34:21.645Z,91.47
2019-01-29T07:36:52.424Z,91.68
2019-01-29T07:39:23.285Z,91.38
2019-01-29T07:41:53.716Z,91.44
2019-01-29T07:44:24.199Z,91.52
2019-01-29T07:46:54.788Z,91.85
2019-01-29T07:49:25.220Z,91.24
2019-01-29T07:51:55.691Z,91.29
2019-01-29T07:54:33.212Z,91.19
2019-01-29T07:56:58.314Z,91.17
2019-01-29T07:59:33.182Z,91.17
2019-01-29T08:02:01.231Z,91.31
2019-01-29T08:04:31.697Z,91.31
2019-01-29T08:07:02.147Z,90.97
2019-01-29T08:09:32.608Z,90.97
2019-01-29T08:12:03.466Z,90.85
2019-01-29T08:14:33.945Z,90.43
2019-01-29T08:17:04.577Z,90.71
2019-01-29T08:19:35.016Z,90.53
2019-01-29T08:22:05.575Z,90.43
2019-01-29T08:24:36.329Z,90.47
2019-01-29T08:27:07.147Z,90.86
2019-01-29T08:29:37.593Z,90.71
2019-01-29T08:32:08.319Z,90.87
2019-01-29T08:34:39.175Z,90.41
2019-01-29T08:37:09.612Z,90.36
2019-01-29T08:39:40.658Z,90.07
2019-01-29T08:42:11.984Z,89.90
2019-01-29T08:44:42.423Z,89.77
2019-01-29T08:47:12.883Z,89.42
2019-01-29T08:49:43.319Z,89.04
2019-01-29T08:52:13.800Z,88.91
2019-01-29T08:54:44.232Z,88.65
2019-01-29T08:57:14.680Z,89.10
2019-01-29T08:59:45.290Z,89.05
2019-01-29T09:02:15.727Z,88.81
2019-01-29T09:04:46.213Z,89.36
2019-01-29T09:07:16.925Z,89.40
2019-01-29T09:09:47.371Z,89.45
2019-01-29T09:12:18.237Z,89.34
2019-01-29T09:14:48.949Z,89.02
2019-01-29T09:17:19.752Z,88.73
2019-01-29T09:19:50.517Z,88.98
2019-01-29T09:22:20.959Z,89.50
2019-01-29T09:24:51.422Z,89.45
2019-01-29T09:27:21.859Z,90.05
2019-01-29T09:29:52.396Z,89.94
2019-01-29T09:32:23.603Z,89.75
2019-01-29T09:34:54.045Z,89.52
2019-01-29T09:37:24.503Z,89.09
2019-01-29T09:39:54.944Z,89.36
2019-01-29T09:42:25.429Z,88.29
2019-01-29T09:44:56.319Z,87.41
2019-01-29T09:47:26.755Z,87.72
2019-01-29T09:49:57.215Z,87.26
2019-01-29T09:52:27.655Z,87.44
2019-01-29T09:54:58.249Z,87.42
2019-01-29T09:57:28.689Z,87.34
2019-01-29T09:59:59.127Z,87.60
2019-01-29T10:02:29.584Z,87.50
2019-01-29T10:05:00.293Z,87.01
2019-01-29T10:07:30.749Z,87.19
2019-01-29T10:10:01.186Z,87.11
2019-01-29T10:12:31.812Z,87.65
2019-01-29T10:15:02.280Z,87.61
2019-01-29T10:17:32.798Z,87.22
2019-01-29T10:20:03.478Z,86.39
2019-01-29T10:22:33.953Z,86.95
2019-01-29T10:25:05.089Z,86.77
2019-01-29T10:27:35.534Z,86.56
2019-01-29T10:30:07.462Z,86.97
2019-01-29T10:32:37.905Z,87.41
2019-01-29T10:35:10.938Z,87.16
2019-01-29T10:37:41.514Z,87.40
2019-01-29T10:40:14.754Z,87.53
2019-01-29T10:42:45.482Z,87.73
2019-01-29T10:45:17.468Z,87.50
2019-01-29T10:47:48.240Z,87.33
2019-01-29T10:50:20.900Z,87.83
2019-01-29T10:52:52.664Z,87.72
2019-01-29T10:55:23.378Z,87.89
2019-01-29T10:57:54.140Z,88.38
2019-01-29T11:00:30.763Z,88.67
2019-01-29T11:03:01.382Z,88.73
2019-01-29T11:05:32.396Z,88.52
2019-01-29T11:08:03.919Z,88.69
2019-01-29T11:10:34.408Z,88.38
2019-01-29T11:13:07.339Z,87.90
2019-01-29T11:15:39.873Z,87.96
2019-01-29T11:18:12.915Z,88.13
2019-01-29T11:20:43.867Z,88.18
2019-01-29T11:23:14.419Z,87.86
2019-01-29T11:25:45.239Z,87.52
2019-01-29T11:28:15.793Z,87.27
2019-01-29T11:30:46.496Z,87.61
2019-01-29T11:33:16.946Z,87.26
2019-01-29T11:35:47.417Z,85.99
2019-01-29T11:38:18.501Z,86.47
2019-01-29T11:40:48.999Z,86.10
2019-01-29T11:43:19.438Z,86.42
2019-01-29T11:45:52.846Z,86.77
2019-01-29T11:48:23.336Z,86.22
2019-01-29T11:50:53.780Z,85.93
2019-01-29T11:53:24.279Z,85.85
2019-01-29T11:55:54.729Z,84.91
2019-01-29T11:58:25.172Z,84.99
2019-01-29T12:01:14.558Z,84.66
2019-01-29T12:03:45.301Z,85.24
2019-01-29T12:06:16.114Z,83.68
2019-01-29T12:08:46.558Z,83.04
2019-01-29T12:11:17.954Z,83.36
2019-01-29T12:13:48.788Z,83.46
2019-01-29T12:16:19.671Z,81.97
2019-01-29T12:18:50.137Z,81.77
2019-01-29T12:21:20.589Z,81.88
2019-01-29T12:23:51.029Z,81.91
2019-01-29T12:26:21.518Z,80.64
2019-01-29T12:28:52.025Z,81.37
2019-01-29T12:31:22.470Z,81.46
2019-01-29T12:33:52.955Z,81.27
2019-01-29T12:36:23.391Z,80.67
2019-01-29T12:38:53.881Z,80.71
2019-01-29T12:41:24.321Z,79.84
2019-01-29T12:43:54.767Z,80.40
2019-01-29T12:46:25.229Z,77.89
2019-01-29T12:48:56.025Z,78.09
2019-01-29T12:51:35.626Z,78.87
2019-01-29T12:54:06.656Z,77.72
2019-01-29T12:56:37.105Z,76.06
2019-01-29T12:59:07.568Z,76.44
2019-01-29T13:01:38.307Z,76.59
2019-01-29T13:04:09.153Z,76.15
2019-01-29T13:06:40.030Z,76.72
2019-01-29T13:09:11.104Z,75.89
2019-01-29T13:11:41.596Z,75.82
2019-01-29T13:14:12.249Z,77.00
2019-01-29T13:16:43.149Z,76.82
2019-01-29T13:19:13.618Z,77.70
2019-01-29T13:21:44.403Z,77.11
2019-01-29T13:24:14.885Z,76.83
2019-01-29T13:26:45.713Z,76.62
2019-01-29T13:29:16.212Z,77.21
2019-01-29T13:31:46.652Z,76.83
2019-01-29T13:34:17.101Z,76.64
2019-01-29T13:36:47.677Z,77.51
2019-01-29T13:39:18.114Z,76.14
2019-01-29T13:41:48.969Z,76.57
2019-01-29T13:44:19.417Z,76.17
2019-01-29T13:46:49.862Z,77.00
2019-01-29T13:49:20.331Z,75.72
2019-01-29T13:51:51.134Z,75.90
2019-01-29T13:54:23.850Z,77.29
2019-01-29T13:56:54.522Z,75.16
2019-01-29T13:59:24.968Z,75.77
2019-01-29T14:01:55.449Z,75.57
2019-01-29T14:04:26.827Z,74.80
2019-01-29T14:06:57.308Z,75.39
2019-01-29T14:09:28.814Z,76.44
2019-01-29T14:11:59.338Z,75.41
2019-01-29T14:14:32.642Z,75.76
2019-01-29T14:17:03.478Z,76.51
2019-01-29T14:19:33.935Z,77.08
2019-01-29T14:22:04.653Z,77.09
2019-01-29T14:24:35.140Z,76.34
2019-01-29T14:27:05.583Z,75.95
2019-01-29T14:29:36.021Z,76.59
2019-01-29T14:32:06.689Z,76.05
2019-01-29T14:34:37.137Z,76.17
2019-01-29T14:37:07.633Z,75.98
2019-01-29T14:40:15.042Z,76.83
2019-01-29T14:42:47.058Z,75.58
2019-01-29T14:45:21.994Z,77.99
2019-01-29T14:47:52.448Z,77.37
2019-01-29T14:50:23.633Z,76.01
2019-01-29T14:52:54.075Z,77.01
2019-01-29T14:55:24.848Z,76.30
2019-01-29T14:57:55.293Z,77.39
2019-01-29T15:00:26.618Z,77.58
2019-01-29T15:02:57.116Z,77.65
2019-01-29T15:05:27.595Z,77.86
2019-01-29T15:07:58.493Z,77.39
2019-01-29T15:10:29.025Z,78.36
2019-01-29T15:12:59.904Z,78.61
2019-01-29T15:15:30.683Z,78.20
2019-01-29T15:18:05.600Z,79.08
2019-01-29T15:20:36.040Z,79.31
2019-01-29T15:23:06.753Z,78.08
2019-01-29T15:25:37.335Z,78.26
2019-01-29T15:28:08.064Z,78.53
2019-01-29T15:30:38.564Z,78.49
2019-01-29T15:33:09.107Z,78.40
2019-01-29T15:35:39.549Z,78.36
2019-01-29T15:38:10.008Z,78.20
2019-01-29T15:40:40.508Z,78.44
2019-01-29T15:43:10.998Z,78.53
2019-01-29T15:45:41.472Z,78.60
2019-01-29T15:48:12.009Z,77.91
2019-01-29T15:50:42.744Z,78.56
2019-01-29T15:53:13.458Z,78.43
2019-01-29T15:55:43.938Z,78.41
2019-01-29T15:58:14.856Z,78.32
2019-01-29T16:00:45.300Z,78.88
2019-01-29T16:03:15.869Z,79.13
2019-01-29T16:05:46.481Z,79.39
2019-01-29T16:08:17.316Z,79.24
2019-01-29T16:10:47.783Z,79.14
2019-01-29T16:13:18.315Z,78.58
2019-01-29T16:15:48.789Z,78.82
2019-01-29T16:18:19.340Z,78.88
2019-01-29T16:20:49.837Z,79.53
2019-01-29T16:23:20.385Z,79.59
2019-01-29T16:25:50.813Z,79.75
2019-01-29T16:28:21.444Z,79.79
2019-01-29T16:30:52.241Z,79.87
2019-01-29T16:33:23.219Z,79.77
2019-01-29T16:35:53.666Z,79.76
2019-01-29T16:38:24.517Z,79.70
2019-01-29T16:41:00.364Z,79.92
2019-01-29T16:43:27.128Z,80.20
2019-01-29T16:45:57.596Z,80.41
2019-01-29T16:48:28.038Z,80.36
2019-01-29T16:50:58.510Z,80.24
2019-01-29T16:53:29.333Z,80.56
2019-01-29T16:55:59.776Z,80.50
2019-01-29T16:58:30.643Z,80.51
2019-01-29T17:01:01.090Z,81.29
2019-01-29T17:03:31.588Z,81.33
2019-01-29T17:06:02.047Z,81.51
2019-01-29T17:08:32.545Z,81.61
2019-01-29T17:11:03.095Z,81.66
2019-01-29T17:13:33.939Z,81.98
2019-01-29T17:16:04.452Z,82.28
2019-01-29T17:18:34.960Z,82.82
2019-01-29T17:21:05.703Z,83.34
2019-01-29T17:23:36.176Z,82.73
2019-01-29T17:26:06.616Z,82.79
2019-01-29T17:28:37.485Z,82.47
2019-01-29T17:31:08.280Z,82.99
2019-01-29T17:33:42.072Z,82.73
2019-01-29T17:36:12.827Z,82.88
2019-01-29T17:38:44.700Z,82.69
2019-01-29T17:41:15.513Z,82.50
2019-01-29T17:43:46.005Z,83.04
2019-01-29T17:46:18.143Z,82.73
2019-01-29T17:48:49.472Z,82.83
2019-01-29T17:51:20.927Z,82.46
2019-01-29T17:53:51.824Z,83.39
2019-01-29T17:56:22.268Z,83.54
2019-01-29T17:58:52.778Z,83.17
2019-01-29T18:01:23.339Z,83.09
2019-01-29T18:03:53.792Z,81.75
2019-01-29T18:06:25.044Z,81.50
2019-01-29T18:08:55.495Z,81.65
2019-01-29T18:11:27.003Z,82.30
2019-01-29T18:13:57.578Z,82.54
2019-01-29T18:16:28.046Z,82.55
2019-01-29T18:18:58.990Z,82.49
2019-01-29T18:21:30.112Z,82.69
2019-01-29T18:24:00.647Z,82.14
2019-01-29T18:26:31.879Z,82.87
2019-01-29T18:29:02.507Z,82.66
2019-01-29T18:31:33.329Z,82.15
2019-01-29T18:34:04.170Z,82.45
2019-01-29T18:36:35.557Z,82.66
2019-01-29T18:39:08.751Z,82.43
2019-01-29T18:41:39.244Z,82.50
2019-01-29T18:44:10.388Z,83.04
2019-01-29T18:46:40.848Z,82.37
2019-01-29T18:49:11.795Z,81.84
2019-01-29T18:51:42.601Z,82.14
2019-01-29T18:54:13.085Z,81.88
2019-01-29T18:56:43.534Z,82.12
2019-01-29T18:59:14.305Z,81.98
2019-01-29T19:01:45.170Z,82.40
2019-01-29T19:04:15.667Z,82.50
2019-01-29T19:06:46.185Z,82.78
2019-01-29T19:09:16.621Z,82.75
2019-01-29T19:11:47.104Z,82.47
2019-01-29T19:14:17.950Z,82.62
2019-01-29T19:16:48.671Z,82.28
2019-01-29T19:19:19.257Z,82.30
2019-01-29T19:21:50.097Z,82.80
2019-01-29T19:24:20.599Z,82.82
2019-01-29T19:26:51.116Z,82.33
2019-01-29T19:29:21.983Z,82.36
2019-01-29T19:31:52.913Z,82.67
2019-01-29T19:34:23.699Z,83.12
2019-01-29T19:36:54.178Z,82.86
2019-01-29T19:39:24.645Z,83.61
2019-01-29T19:41:55.138Z,83.52
2019-01-29T19:44:25.644Z,83.42
2019-01-29T19:46:56.390Z,83.53
2019-01-29T19:49:27.200Z,83.57
2019-01-29T19:51:58.169Z,83.31
2019-01-29T19:54:28.674Z,83.58
2019-01-29T19:57:00.679Z,83.49
2019-01-29T19:59:31.115Z,83.57
2019-01-29T20:02:01.886Z,83.33
2019-01-29T20:04:32.346Z,83.26
2019-01-29T20:07:03.406Z,83.58
2019-01-29T20:09:34.314Z,83.65
2019-01-29T20:12:04.990Z,84.01
2019-01-29T20:14:35.611Z,83.55
2019-01-29T20:17:06.520Z,83.61
2019-01-29T20:19:37.937Z,83.75
2019-01-29T20:22:08.357Z,83.95
2019-01-29T20:24:39.143Z,84.49
2019-01-29T20:27:09.984Z,84.25
2019-01-29T20:29:41.128Z,84.80
2019-01-29T20:32:11.659Z,84.86
2019-01-29T20:34:42.445Z,84.52
2019-01-29T20:37:12.945Z,84.63
2019-01-29T20:39:44.273Z,84.43
2019-01-29T20:42:14.715Z,84.42
2019-01-29T20:44:47.887Z,84.36
2019-01-29T20:47:18.336Z,84.58
2019-01-29T20:49:48.836Z,84.25
2019-01-29T20:52:19.268Z,84.49
2019-01-29T20:54:49.708Z,84.45
2019-01-29T20:57:20.189Z,84.63
2019-01-29T20:59:50.728Z,84.62
2019-01-29T21:02:22.656Z,84.72
2019-01-29T21:04:53.460Z,84.82
2019-01-29T21:07:25.797Z,85.00
2019-01-29T21:09:57.009Z,84.96
2019-01-29T21:12:27.788Z,84.85
2019-01-29T21:15:01.045Z,84.62
2019-01-29T21:17:30.892Z,84.43
2019-01-29T21:20:01.329Z,84.45
2019-01-29T21:22:32.127Z,84.78
2019-01-29T21:25:03.271Z,84.86
2019-01-29T21:27:34.174Z,84.87
2019-01-29T21:30:06.212Z,84.68
2019-01-29T21:32:37.016Z,84.87
2019-01-29T21:35:08.657Z,85.03
2019-01-29T21:37:39.492Z,84.96
2019-01-29T21:40:10.483Z,85.09
2019-01-29T21:42:40.919Z,85.07
2019-01-29T21:45:12.756Z,84.74
2019-01-29T21:47:43.209Z,84.60
2019-01-29T21:50:16.417Z,84.77
2019-01-29T21:52:46.851Z,84.26
2019-01-29T21:55:17.399Z,84.61
2019-01-29T21:57:48.141Z,84.91
2019-01-29T22:00:38.624Z,84.78
2019-01-29T22:03:10.429Z,85.19
2019-01-29T22:05:40.987Z,85.03
2019-01-29T22:08:12.100Z,85.48
2019-01-29T22:10:42.985Z,85.76
2019-01-29T22:13:14.388Z,85.41
2019-01-29T22:15:44.974Z,85.87
2019-01-29T22:18:15.849Z,85.97
2019-01-29T22:20:46.633Z,85.86
2019-01-29T22:23:17.207Z,85.67
2019-01-29T22:25:47.653Z,85.98
2019-01-29T22:28:18.134Z,85.96
2019-01-29T22:30:48.753Z,86.12
2019-01-29T22:33:19.192Z,85.72
2019-01-29T22:35:49.671Z,85.69
2019-01-29T22:38:20.131Z,85.58
2019-01-29T22:40:50.630Z,85.50
2019-01-29T22:43:21.100Z,85.67
2019-01-29T22:45:51.546Z,85.94
2019-01-29T22:48:22.026Z,85.93
2019-01-29T22:50:52.474Z,85.88
2019-01-29T22:53:22.969Z,85.88
2019-01-29T22:55:54.049Z,86.25
2019-01-29T22:58:24.562Z,85.62
2019-01-29T23:01:21.797Z,86.23
2019-01-29T23:04:14.196Z,86.21
2019-01-29T23:07:00.149Z,86.35
2019-01-29T23:09:30.973Z,86.56
2019-01-29T23:12:01.420Z,86.80
2019-01-29T23:14:31.908Z,87.17
2019-01-29T23:17:02.360Z,87.08
2019-01-29T23:19:33.716Z,86.93
2019-01-29T23:22:04.557Z,86.70
2019-01-29T23:24:35.392Z,86.84
2019-01-29T23:27:05.959Z,86.57
2019-01-29T23:29:43.316Z,86.77
2019-01-29T23:32:09.346Z,86.43
2019-01-29T23:34:39.786Z,86.32
2019-01-29T23:37:10.228Z,86.19
2019-01-29T23:39:40.701Z,86.48
2019-01-29T23:42:11.141Z,86.10
2019-01-29T23:44:41.637Z,86.21
2019-01-29T23:47:12.068Z,86.00
2019-01-29T23:49:42.504Z,86.29
2019-01-29T23:52:13.065Z,85.96
2019-01-29T23:54:43.512Z,86.24
2019-01-29T23:57:13.991Z,86.15
2019-01-29T23:59:53.549Z,86.32
